Time;durP1;ratioP1;P1;durP2;ratioP2;P2;SDS_P1;SDS_P2;PMS_P1;PMS_P2;Temp;Humidity;BMP_temperature;BMP_pressure;BME280_temperature;BME280_humidity;BME280_pressure;Samples;Min_cycle;Max_cycle;Signal;HPM_P1;HPM_P2
2023/03/09 00:00:39;;;;;;;17.37;15.50;;;2.10;99.90;;;;;;5063166;28;20095;-69
2023/03/09 00:03:05;;;;;;;17.87;15.43;;;2.10;99.90;;;;;;5041949;28;20078;-71
2023/03/09 00:05:30;;;;;;;15.80;14.20;;;2.10;99.90;;;;;;5079258;28;20082;-69
2023/03/09 00:07:56;;;;;;;16.37;14.67;;;2.10;99.90;;;;;;5077659;28;20056;-70
2023/03/09 00:10:23;;;;;;;16.37;14.10;;;2.10;99.90;;;;;;5076019;28;20201;-69
2023/03/09 00:12:48;;;;;;;16.37;14.60;;;2.00;99.90;;;;;;5094469;28;20086;-70
2023/03/09 00:15:14;;;;;;;17.20;15.40;;;2.10;99.90;;;;;;5046550;28;20311;-69
2023/03/09 00:17:44;;;;;;;15.83;14.23;;;2.00;99.90;;;;;;5061902;28;20051;-69
2023/03/09 00:20:17;;;;;;;;;;;2.00;99.90;;;;;;5077052;28;20178;-69
2023/03/09 00:22:53;;;;;;;18.00;15.87;;;1.90;99.90;;;;;;5079295;28;19923;-69
2023/03/09 00:25:21;;;;;;;18.37;16.43;;;1.90;99.90;;;;;;5059719;28;20053;-69
2023/03/09 00:27:52;;;;;;;19.07;17.07;;;1.90;99.90;;;;;;5074437;28;20040;-69
2023/03/09 00:30:19;;;;;;;19.40;17.37;;;1.80;99.90;;;;;;5062404;28;20083;-69
2023/03/09 00:32:46;;;;;;;19.07;17.07;;;1.90;99.90;;;;;;5062564;28;20074;-69
2023/03/09 00:35:12;;;;;;;20.60;17.83;;;1.80;99.90;;;;;;5079162;28;20123;-69
2023/03/09 00:37:38;;;;;;;20.37;18.23;;;1.80;99.90;;;;;;5076382;28;20113;-69
2023/03/09 00:40:09;;;;;;;19.83;17.73;;;1.80;99.90;;;;;;5045574;28;20123;-70
2023/03/09 00:42:41;;;;;;;23.57;20.30;;;1.70;99.90;;;;;;5043769;28;20431;-70
2023/03/09 00:45:11;;;;;;;20.60;18.37;;;1.70;99.90;;;;;;5077596;28;20044;-70
2023/03/09 00:47:37;;;;;;;20.90;18.70;;;1.70;99.90;;;;;;5075442;28;20200;-69
2023/03/09 00:50:04;;;;;;;20.37;18.23;;;1.70;99.90;;;;;;5079101;28;20048;-70
2023/03/09 00:52:33;;;;;;;20.93;18.73;;;1.70;99.90;;;;;;5076160;28;20052;-69
2023/03/09 00:54:59;;;;;;;20.67;18.43;;;1.80;99.90;;;;;;5061476;28;20080;-69
2023/03/09 00:57:25;;;;;;;20.33;17.77;;;1.70;99.90;;;;;;5078570;28;20679;-69
2023/03/09 00:59:51;;;;;;;20.50;18.30;;;1.70;99.90;;;;;;5061241;28;20102;-69
2023/03/09 01:02:22;;;;;;;22.00;19.60;;;1.70;99.90;;;;;;5074567;28;20936;-69
2023/03/09 01:04:49;;;;;;;20.33;18.00;;;1.70;99.90;;;;;;5077255;28;20055;-69
2023/03/09 01:07:15;;;;;;;20.97;18.73;;;1.70;99.90;;;;;;5064634;28;20040;-69
2023/03/09 01:09:41;;;;;;;20.90;18.70;;;1.70;99.90;;;;;;5074758;28;20120;-69
2023/03/09 01:12:07;;;;;;;21.03;18.83;;;1.70;99.90;;;;;;5081505;28;20048;-69
2023/03/09 01:14:33;;;;;;;21.00;18.77;;;1.70;99.90;;;;;;5090477;27;20052;-69
2023/03/09 01:16:59;;;;;;;21.60;19.30;;;1.60;99.90;;;;;;5057390;28;20050;-70
2023/03/09 01:19:25;;;;;;;21.10;18.80;;;1.60;99.90;;;;;;5052295;28;20530;-69
2023/03/09 01:21:51;;;;;;;23.93;20.37;;;1.60;99.90;;;;;;5034655;28;20051;-70
2023/03/09 01:24:17;;;;;;;22.57;20.17;;;1.60;99.90;;;;;;5048436;28;20377;-69
2023/03/09 01:26:43;;;;;;;23.07;20.50;;;1.60;99.90;;;;;;5064203;28;20103;-69
2023/03/09 01:29:09;;;;;;;22.67;19.97;;;1.60;99.90;;;;;;5031408;28;20047;-69
2023/03/09 01:31:35;;;;;;;22.53;19.50;;;1.60;99.90;;;;;;5060861;28;20862;-69
2023/03/09 01:34:01;;;;;;;22.40;19.90;;;1.60;99.90;;;;;;5032918;28;20058;-69
2023/03/09 01:36:26;;;;;;;22.73;20.27;;;1.60;99.90;;;;;;5046988;28;20048;-69
2023/03/09 01:38:52;;;;;;;22.53;20.13;;;1.50;99.90;;;;;;5065478;28;20121;-70
2023/03/09 01:41:20;;;;;;;22.57;20.13;;;1.60;99.90;;;;;;5065708;28;20084;-69
2023/03/09 01:43:48;;;;;;;25.73;21.83;;;1.60;99.90;;;;;;5064335;28;20097;-69
2023/03/09 01:46:26;;;;;;;24.07;20.70;;;1.60;99.90;;;;;;5082296;28;20220;-70
2023/03/09 01:49:05;;;;;;;23.67;20.70;;;1.50;99.90;;;;;;5064755;28;20456;-69
2023/03/09 01:51:45;;;;;;;23.87;21.17;;;1.50;99.90;;;;;;5043290;28;20554;-69
2023/03/09 01:54:24;;;;;;;23.95;20.30;;;1.50;99.90;;;;;;5044193;28;20032;-69
2023/03/09 01:56:55;;;;;;;24.67;21.20;;;1.50;99.90;;;;;;5069070;28;20101;-70
2023/03/09 01:59:25;;;;;;;24.60;21.85;;;1.50;99.90;;;;;;5069467;28;20051;-70
2023/03/09 02:01:52;;;;;;;25.80;20.93;;;1.50;99.90;;;;;;5070152;28;20047;-70
2023/03/09 02:04:27;;;;;;;22.80;20.33;;;1.50;99.90;;;;;;5050864;28;20048;-69
2023/03/09 02:06:54;;;;;;;23.80;21.10;;;1.50;99.90;;;;;;5050811;28;20094;-69
2023/03/09 02:09:44;;;;;;;23.27;20.73;;;1.40;99.90;;;;;;5069270;28;21340;-69
2023/03/09 02:12:15;;;;;;;24.90;20.13;;;1.40;99.90;;;;;;5064376;28;20052;-69
2023/03/09 02:14:41;;;;;;;22.73;20.33;;;1.40;99.90;;;;;;5067121;28;20491;-70
2023/03/09 02:17:10;;;;;;;23.30;20.40;;;1.50;99.90;;;;;;5068184;28;20044;-69
2023/03/09 02:20:05;;;;;;;22.57;20.10;;;1.50;99.90;;;;;;5046188;28;20392;-69
2023/03/09 02:22:34;;;;;;;23.53;19.77;;;1.50;99.90;;;;;;5065951;28;20062;-69
2023/03/09 02:25:10;;;;;;;21.57;19.03;;;1.40;99.90;;;;;;5064393;28;20044;-69
2023/03/09 02:27:36;;;;;;;22.93;20.17;;;1.40;99.90;;;;;;5063521;28;20063;-69
2023/03/09 02:30:03;;;;;;;21.87;19.57;;;1.40;99.90;;;;;;5064977;28;20044;-69
2023/03/09 02:32:31;;;;;;;20.77;18.00;;;1.50;99.90;;;;;;5048451;28;20078;-69
2023/03/09 02:34:56;;;;;;;21.47;18.40;;;1.50;99.90;;;;;;5063942;28;20496;-70
2023/03/09 02:37:29;;;;;;;21.37;18.40;;;1.40;99.90;;;;;;5063754;28;20036;-69
2023/03/09 02:39:58;;;;;;;21.03;18.10;;;1.40;99.90;;;;;;5080877;28;20117;-69
2023/03/09 02:42:26;;;;;;;20.90;18.43;;;1.40;99.90;;;;;;5078954;27;20060;-69
2023/03/09 02:44:52;;;;;;;18.47;16.57;;;1.40;99.90;;;;;;5066535;28;20422;-69
2023/03/09 02:47:21;;;;;;;19.37;17.17;;;1.30;99.90;;;;;;5063132;28;20104;-69
2023/03/09 02:49:47;;;;;;;18.60;16.53;;;1.40;99.90;;;;;;5041951;28;20832;-69
2023/03/09 02:52:13;;;;;;;20.00;17.87;;;1.40;99.90;;;;;;5047726;28;20163;-69
2023/03/09 02:54:39;;;;;;;18.57;16.43;;;1.40;99.90;;;;;;5064050;28;20036;-69
2023/03/09 02:57:05;;;;;;;17.67;15.77;;;1.40;99.90;;;;;;5063266;28;20113;-69
2023/03/09 02:59:31;;;;;;;19.73;17.47;;;1.40;99.90;;;;;;5066870;28;20550;-69
2023/03/09 03:01:57;;;;;;;18.27;16.37;;;1.40;99.90;;;;;;5031808;28;20125;-69
2023/03/09 03:04:23;;;;;;;18.17;16.33;;;1.40;99.90;;;;;;5046659;28;20101;-69
2023/03/09 03:06:48;;;;;;;18.57;16.33;;;1.40;99.90;;;;;;5068524;28;20055;-69
2023/03/09 03:09:15;;;;;;;18.93;16.43;;;1.40;99.90;;;;;;5032689;28;20076;-69
2023/03/09 03:11:40;;;;;;;17.27;15.47;;;1.30;99.90;;;;;;5048142;28;20081;-69
2023/03/09 03:14:06;;;;;;;17.90;16.00;;;1.40;99.90;;;;;;5051954;28;20518;-69
2023/03/09 03:16:34;;;;;;;18.17;16.13;;;1.40;99.90;;;;;;5052612;28;20043;-69
2023/03/09 03:19:00;;;;;;;17.93;16.13;;;1.30;99.90;;;;;;5045523;28;20043;-69
2023/03/09 03:21:26;;;;;;;16.97;15.27;;;1.40;99.90;;;;;;5069310;28;20134;-69
2023/03/09 03:23:51;;;;;;;17.90;16.10;;;1.40;99.90;;;;;;5065773;28;20044;-69
2023/03/09 03:26:18;;;;;;;18.37;15.43;;;1.30;99.90;;;;;;5031451;28;20052;-69
2023/03/09 03:28:44;;;;;;;17.30;15.37;;;1.30;99.90;;;;;;5062023;28;20056;-69
2023/03/09 03:31:13;;;;;;;17.83;15.93;;;1.30;99.90;;;;;;5032703;28;20740;-69
2023/03/09 03:33:39;;;;;;;17.63;15.73;;;1.30;99.90;;;;;;5032833;28;20048;-69
2023/03/09 03:36:05;;;;;;;18.10;16.20;;;1.30;99.90;;;;;;5046756;28;20175;-69
2023/03/09 03:38:31;;;;;;;17.60;15.77;;;1.30;99.90;;;;;;5046994;28;20674;-69
2023/03/09 03:40:57;;;;;;;18.53;16.33;;;1.30;99.90;;;;;;5064108;28;20063;-69
2023/03/09 03:43:23;;;;;;;18.77;16.77;;;1.20;99.90;;;;;;5042289;28;20046;-68
2023/03/09 03:45:48;;;;;;;18.40;16.33;;;1.20;99.90;;;;;;5045168;28;20050;-69
2023/03/09 03:48:14;;;;;;;18.97;16.97;;;1.20;99.90;;;;;;5060729;28;20646;-69
2023/03/09 03:50:40;;;;;;;18.67;16.77;;;1.20;99.90;;;;;;5076112;28;20044;-69
2023/03/09 03:53:06;;;;;;;19.07;16.90;;;1.20;99.90;;;;;;5075755;28;20043;-69
2023/03/09 03:55:35;;;;;;;18.90;16.90;;;1.20;99.90;;;;;;5076129;28;20178;-69
2023/03/09 03:58:01;;;;;;;21.23;18.30;;;1.20;99.90;;;;;;5075860;28;20109;-69
2023/03/09 04:00:26;;;;;;;21.83;18.77;;;1.20;99.90;;;;;;5066589;28;20066;-69
2023/03/09 04:02:52;;;;;;;20.70;18.43;;;1.20;99.90;;;;;;5042510;28;20047;-69
2023/03/09 04:05:18;;;;;;;23.03;19.87;;;1.20;99.90;;;;;;5041971;28;20055;-69
2023/03/09 04:07:44;;;;;;;21.30;19.00;;;1.20;99.90;;;;;;5041806;28;20048;-69
2023/03/09 04:10:10;;;;;;;22.30;19.97;;;1.20;99.90;;;;;;5040898;28;20700;-69
2023/03/09 04:12:39;;;;;;;22.30;20.00;;;1.20;99.90;;;;;;5040986;28;20105;-68
2023/03/09 04:15:08;;;;;;;26.40;20.83;;;1.20;99.90;;;;;;5073201;28;20375;-69
2023/03/09 04:17:34;;;;;;;21.55;19.25;;;1.20;99.90;;;;;;5078093;28;20040;-69
2023/03/09 04:20:00;;;;;;;22.63;20.10;;;1.20;99.90;;;;;;5058362;28;20101;-69
2023/03/09 04:22:26;;;;;;;23.50;20.93;;;1.20;99.90;;;;;;5072942;28;20047;-68
2023/03/09 04:24:52;;;;;;;23.80;21.30;;;1.20;99.90;;;;;;5077379;28;20062;-69
2023/03/09 04:27:17;;;;;;;23.37;20.87;;;1.20;99.90;;;;;;5076216;28;20056;-69
2023/03/09 04:29:43;;;;;;;23.70;21.13;;;1.20;99.90;;;;;;5041504;28;20079;-69
2023/03/09 04:32:09;;;;;;;23.87;21.37;;;1.20;99.90;;;;;;5050507;28;20080;-69
2023/03/09 04:34:34;;;;;;;26.43;22.00;;;1.10;99.90;;;;;;5074720;28;20044;-69
2023/03/09 04:37:00;;;;;;;23.87;21.17;;;1.20;99.90;;;;;;5057438;28;20059;-69
2023/03/09 04:39:26;;;;;;;26.90;21.73;;;1.20;99.90;;;;;;5075037;28;20044;-69
2023/03/09 04:41:55;;;;;;;24.60;22.00;;;1.20;99.90;;;;;;5087908;28;20419;-69
2023/03/09 04:44:21;;;;;;;27.20;22.87;;;1.20;99.90;;;;;;5072266;28;20054;-69
2023/03/09 04:46:46;;;;;;;25.10;22.17;;;1.20;99.90;;;;;;5041173;28;20035;-70
2023/03/09 04:49:12;;;;;;;26.23;23.03;;;1.10;99.90;;;;;;5056645;28;20048;-70
2023/03/09 04:51:38;;;;;;;27.10;24.03;;;1.10;99.90;;;;;;5057209;28;20040;-70
2023/03/09 04:54:04;;;;;;;27.07;23.87;;;1.10;99.90;;;;;;5042126;28;20384;-70
2023/03/09 04:56:29;;;;;;;26.87;23.27;;;1.10;99.90;;;;;;5047521;28;20050;-70
2023/03/09 04:58:55;;;;;;;27.20;23.97;;;1.10;99.90;;;;;;5055905;28;20135;-70
2023/03/09 05:01:21;;;;;;;28.27;24.53;;;1.10;99.90;;;;;;5071422;28;20175;-70
2023/03/09 05:03:47;;;;;;;29.30;25.90;;;1.20;99.90;;;;;;5056594;28;20133;-70
2023/03/09 05:06:13;;;;;;;30.53;25.30;;;1.20;99.90;;;;;;5054276;28;20043;-69
2023/03/09 05:08:39;;;;;;;30.17;26.53;;;1.20;99.90;;;;;;5052783;28;20181;-71
2023/03/09 05:11:04;;;;;;;31.20;26.93;;;1.20;99.90;;;;;;5055363;28;20130;-69
2023/03/09 05:13:30;;;;;;;30.53;27.23;;;1.10;99.90;;;;;;5073098;28;20130;-71
2023/03/09 05:15:56;;;;;;;30.90;27.40;;;1.20;99.90;;;;;;5072506;28;20790;-69
2023/03/09 05:18:22;;;;;;;33.03;28.13;;;1.10;99.90;;;;;;5052765;28;20079;-71
2023/03/09 05:20:48;;;;;;;32.50;27.43;;;1.10;99.90;;;;;;5039301;28;20055;-68
2023/03/09 05:23:13;;;;;;;34.17;27.90;;;1.10;99.90;;;;;;5041681;28;20032;-69
2023/03/09 05:25:39;;;;;;;33.70;28.00;;;1.10;99.90;;;;;;5057311;28;20040;-69
2023/03/09 05:28:05;;;;;;;34.27;27.40;;;1.10;99.90;;;;;;5071722;28;20126;-69
2023/03/09 05:30:31;;;;;;;35.67;29.30;;;1.10;99.90;;;;;;5053880;28;20066;-69
2023/03/09 05:32:57;;;;;;;35.30;29.03;;;1.10;99.90;;;;;;5055365;28;20047;-69
2023/03/09 05:35:23;;;;;;;32.90;27.93;;;1.10;99.90;;;;;;5055901;28;20044;-69
2023/03/09 05:37:48;;;;;;;32.03;27.13;;;1.10;99.90;;;;;;5053995;28;20036;-69
2023/03/09 05:40:17;;;;;;;33.33;26.60;;;1.10;99.90;;;;;;5072785;28;20055;-69
2023/03/09 05:42:43;;;;;;;34.87;27.43;;;1.10;99.90;;;;;;5054838;28;20070;-69
2023/03/09 05:45:09;;;;;;;33.53;27.57;;;1.00;99.90;;;;;;5062403;28;20082;-69
2023/03/09 05:47:35;;;;;;;32.30;26.27;;;1.10;99.90;;;;;;5055232;28;20050;-69
2023/03/09 05:50:01;;;;;;;33.63;27.67;;;1.10;99.90;;;;;;5055621;28;20135;-69
2023/03/09 05:52:27;;;;;;;31.73;26.47;;;1.10;99.90;;;;;;5055433;28;20502;-69
2023/03/09 05:54:53;;;;;;;30.23;25.63;;;1.10;99.90;;;;;;5040426;28;20036;-69
2023/03/09 05:57:19;;;;;;;32.23;25.43;;;1.10;99.90;;;;;;5021701;28;20075;-69
2023/03/09 05:59:47;;;;;;;30.93;25.63;;;1.10;99.90;;;;;;5054030;28;20625;-69
2023/03/09 06:02:13;;;;;;;32.27;26.87;;;1.10;99.90;;;;;;5073427;28;20084;-70
2023/03/09 06:04:38;;;;;;;31.60;25.57;;;1.10;99.90;;;;;;5069084;28;20051;-69
2023/03/09 06:07:04;;;;;;;32.17;26.40;;;1.00;99.90;;;;;;5084892;27;20056;-70
2023/03/09 06:09:31;;;;;;;30.53;26.33;;;1.10;99.90;;;;;;5052507;28;20075;-71
2023/03/09 06:11:56;;;;;;;33.57;26.20;;;1.10;99.90;;;;;;5053743;28;20055;-70
2023/03/09 06:14:22;;;;;;;31.73;25.60;;;1.10;99.90;;;;;;5068344;28;20044;-70
2023/03/09 06:16:48;;;;;;;29.70;24.83;;;1.10;99.90;;;;;;5070072;28;20044;-71
2023/03/09 06:19:14;;;;;;;29.53;26.33;;;1.10;99.90;;;;;;5053966;28;20394;-71
2023/03/09 06:21:39;;;;;;;30.07;24.23;;;1.10;99.90;;;;;;5085644;28;20083;-71
2023/03/09 06:24:06;;;;;;;33.23;25.13;;;1.10;99.90;;;;;;5052417;28;20068;-71
2023/03/09 06:26:32;;;;;;;30.33;24.90;;;1.10;99.90;;;;;;5065483;28;20663;-71
2023/03/09 06:28:57;;;;;;;30.63;25.73;;;1.10;99.90;;;;;;5034360;28;20042;-70
2023/03/09 06:31:23;;;;;;;31.87;26.37;;;1.10;99.90;;;;;;5052646;28;20724;-70
2023/03/09 06:33:49;;;;;;;30.87;25.77;;;1.10;99.90;;;;;;5068909;28;20184;-70
2023/03/09 06:36:17;;;;;;;31.57;24.77;;;1.20;99.90;;;;;;5069678;28;20292;-70
2023/03/09 06:38:42;;;;;;;31.63;26.10;;;1.10;99.90;;;;;;5062230;28;20052;-71
2023/03/09 06:41:08;;;;;;;30.83;24.90;;;1.10;99.90;;;;;;5051097;28;20117;-72
2023/03/09 06:43:34;;;;;;;31.47;25.23;;;1.10;99.90;;;;;;5062674;28;20055;-72
2023/03/09 06:46:00;;;;;;;27.87;23.30;;;1.10;99.90;;;;;;5034350;28;20584;-72
2023/03/09 06:48:26;;;;;;;30.63;24.80;;;1.10;99.90;;;;;;5070456;28;20044;-72
2023/03/09 06:50:52;;;;;;;32.90;25.73;;;1.10;99.90;;;;;;5035356;28;20046;-72
2023/03/09 06:53:18;;;;;;;31.43;25.87;;;1.20;99.90;;;;;;5070273;28;20056;-72
2023/03/09 06:55:44;;;;;;;30.83;25.73;;;1.20;99.90;;;;;;5053468;28;20490;-72
2023/03/09 06:58:16;;;;;;;32.73;26.23;;;1.10;99.90;;;;;;5069025;28;20051;-72
2023/03/09 07:00:46;;;;;;;32.17;25.17;;;1.10;99.90;;;;;;5071467;28;20056;-71
2023/03/09 07:03:16;;;;;;;;;;;1.10;99.90;;;;;;5071521;28;20052;-72
2023/03/09 07:05:42;;;;;;;29.75;25.33;;;1.20;99.90;;;;;;5087904;27;19928;-71
2023/03/09 07:08:08;;;;;;;31.27;26.60;;;1.20;99.90;;;;;;5071179;28;20062;-72
2023/03/09 07:10:34;;;;;;;31.90;26.23;;;1.20;99.90;;;;;;5038766;28;20062;-72
2023/03/09 07:13:03;;;;;;;31.40;26.03;;;1.20;99.90;;;;;;5070850;28;20584;-72
2023/03/09 07:15:29;;;;;;;32.87;26.37;;;1.30;99.90;;;;;;5085080;28;20121;-73
2023/03/09 07:17:58;;;;;;;33.70;26.63;;;1.30;99.90;;;;;;5055494;28;21486;-72
2023/03/09 07:20:24;;;;;;;31.17;25.13;;;1.30;99.90;;;;;;5072927;28;20039;-72
2023/03/09 07:22:51;;;;;;;29.87;25.77;;;1.40;99.90;;;;;;5070634;28;20036;-72
2023/03/09 07:25:17;;;;;;;30.20;26.07;;;1.30;99.90;;;;;;5071306;28;20052;-72
2023/03/09 07:27:43;;;;;;;32.80;25.87;;;1.40;99.90;;;;;;5069599;28;20047;-72
2023/03/09 07:30:09;;;;;;;30.07;25.43;;;1.40;99.90;;;;;;5070780;28;20351;-72
2023/03/09 07:32:35;;;;;;;32.13;26.03;;;1.40;99.90;;;;;;5068306;28;20044;-72
2023/03/09 07:35:01;;;;;;;32.83;26.40;;;1.40;99.90;;;;;;5069928;28;20048;-72
2023/03/09 07:37:26;;;;;;;31.53;26.17;;;1.40;99.90;;;;;;5071325;28;20407;-72
2023/03/09 07:39:52;;;;;;;30.83;26.03;;;1.40;99.90;;;;;;5055081;28;20117;-72
2023/03/09 07:42:18;;;;;;;29.93;26.20;;;1.50;99.90;;;;;;5068549;28;20044;-72
2023/03/09 07:44:44;;;;;;;32.30;27.50;;;1.50;99.90;;;;;;5072671;28;20059;-72
2023/03/09 07:47:09;;;;;;;32.60;27.90;;;1.50;99.90;;;;;;5053924;28;20068;-72
2023/03/09 07:49:35;;;;;;;31.47;26.50;;;1.50;99.90;;;;;;5056675;28;20044;-72
2023/03/09 07:52:02;;;;;;;28.93;25.77;;;1.50;99.90;;;;;;5072698;28;20159;-72
2023/03/09 07:54:27;;;;;;;29.20;25.93;;;1.60;99.90;;;;;;5075794;28;20436;-72
2023/03/09 07:56:55;;;;;;;30.47;26.20;;;1.60;99.90;;;;;;5059653;28;20047;-72
2023/03/09 07:59:21;;;;;;;30.23;26.33;;;1.60;99.90;;;;;;5090989;28;20585;-72
2023/03/09 08:01:47;;;;;;;30.63;26.27;;;1.70;99.90;;;;;;5057136;28;20134;-72
2023/03/09 08:04:13;;;;;;;29.87;25.97;;;1.70;99.90;;;;;;5075248;28;20086;-72
2023/03/09 08:06:39;;;;;;;29.20;26.03;;;1.70;99.90;;;;;;5040923;28;20040;-72
2023/03/09 08:09:06;;;;;;;31.13;26.73;;;1.70;99.90;;;;;;5052591;28;20036;-73
2023/03/09 08:11:33;;;;;;;31.03;26.90;;;1.70;99.90;;;;;;5073381;28;20181;-73
2023/03/09 08:13:59;;;;;;;28.73;25.50;;;1.70;99.90;;;;;;5055777;28;20071;-72
2023/03/09 08:16:25;;;;;;;30.13;26.83;;;1.80;99.90;;;;;;5056384;28;20089;-72
2023/03/09 08:18:51;;;;;;;29.53;26.37;;;1.80;99.90;;;;;;5058466;28;20549;-72
2023/03/09 08:21:17;;;;;;;30.03;26.53;;;1.80;99.90;;;;;;5073842;28;20036;-72
2023/03/09 08:23:46;;;;;;;28.80;25.70;;;1.80;99.90;;;;;;5072874;28;20086;-72
2023/03/09 08:26:16;;;;;;;27.67;24.67;;;1.80;99.90;;;;;;5073435;28;20482;-73
2023/03/09 08:28:43;;;;;;;29.52;26.20;;;1.80;99.90;;;;;;5072892;28;20052;-72
2023/03/09 08:31:11;;;;;;;28.43;25.40;;;1.90;99.90;;;;;;5054286;28;20049;-72
2023/03/09 08:33:36;;;;;;;28.30;25.20;;;2.00;99.90;;;;;;5056967;28;20091;-73
2023/03/09 08:36:17;;;;;;;27.53;24.63;;;2.00;99.90;;;;;;5063928;28;20119;-73
2023/03/09 08:38:43;;;;;;;;;;;2.00;99.90;;;;;;5073230;28;20105;-73
2023/03/09 08:41:09;;;;;;;28.27;25.27;;;2.10;99.90;;;;;;5071181;28;19928;-73
2023/03/09 08:43:35;;;;;;;28.30;25.30;;;2.00;99.90;;;;;;5071501;28;20052;-73
2023/03/09 08:46:02;;;;;;;28.23;25.23;;;2.00;99.90;;;;;;5053443;28;20429;-72
2023/03/09 08:48:27;;;;;;;28.43;25.33;;;2.10;99.90;;;;;;5023710;28;20090;-73
2023/03/09 08:50:53;;;;;;;28.47;25.47;;;2.10;99.90;;;;;;5075425;28;20032;-73
2023/03/09 08:53:20;;;;;;;29.83;26.63;;;2.10;99.90;;;;;;5040715;28;20423;-72
2023/03/09 08:55:46;;;;;;;29.10;26.00;;;2.10;99.90;;;;;;5071675;28;20052;-72
2023/03/09 08:58:11;;;;;;;29.20;26.20;;;2.10;99.90;;;;;;5056662;28;20096;-72
2023/03/09 09:00:37;;;;;;;29.27;26.10;;;2.20;99.90;;;;;;5058007;28;20060;-72
2023/03/09 09:03:04;;;;;;;30.07;26.73;;;2.20;99.90;;;;;;5072112;28;20718;-72
2023/03/09 09:05:30;;;;;;;29.07;26.10;;;2.20;99.90;;;;;;5073340;28;20032;-72
2023/03/09 09:07:56;;;;;;;28.03;25.03;;;2.20;99.90;;;;;;5059856;28;20448;-72
2023/03/09 09:10:21;;;;;;;29.97;26.27;;;2.20;99.90;;;;;;5057738;28;20444;-72
2023/03/09 09:12:47;;;;;;;28.33;25.37;;;2.20;99.90;;;;;;5073725;28;20036;-72
2023/03/09 09:15:15;;;;;;;26.43;23.70;;;2.20;99.90;;;;;;5060733;28;20077;-72
2023/03/09 09:17:41;;;;;;;26.13;23.33;;;2.30;99.90;;;;;;5059255;28;20109;-72
2023/03/09 09:20:08;;;;;;;27.87;24.97;;;2.30;99.90;;;;;;5075809;28;20330;-72
2023/03/09 09:22:34;;;;;;;27.57;24.77;;;2.30;99.90;;;;;;5078510;28;20076;-72
2023/03/09 09:25:00;;;;;;;27.30;24.53;;;2.40;99.90;;;;;;5059030;28;20544;-71
2023/03/09 09:27:26;;;;;;;28.23;25.23;;;2.40;99.90;;;;;;5061797;28;20044;-71
2023/03/09 09:29:52;;;;;;;26.30;23.57;;;2.50;99.90;;;;;;5075834;28;20040;-72
2023/03/09 09:32:19;;;;;;;27.70;24.90;;;2.50;99.90;;;;;;5075903;28;20068;-71
2023/03/09 09:34:45;;;;;;;28.43;25.23;;;2.50;99.90;;;;;;5059059;28;20646;-72
2023/03/09 09:37:11;;;;;;;27.23;24.43;;;2.40;99.90;;;;;;5071703;28;20165;-71
2023/03/09 09:39:38;;;;;;;28.63;25.73;;;2.40;99.90;;;;;;5041547;28;20043;-71
2023/03/09 09:42:18;;;;;;;28.07;25.10;;;2.50;99.90;;;;;;5072857;28;20051;-71
2023/03/09 09:44:48;;;;;;;26.02;23.42;;;2.50;99.90;;;;;;5075090;28;20524;-71
2023/03/09 09:47:21;;;;;;;26.73;23.95;;;2.50;99.90;;;;;;5074479;28;20127;-71
2023/03/09 09:49:50;;;;;;;27.33;24.43;;;2.50;99.90;;;;;;5073393;28;20052;-71
2023/03/09 09:52:34;;;;;;;26.63;23.87;;;2.50;99.90;;;;;;5073612;28;20055;-71
2023/03/09 09:55:20;;;;;;;26.60;23.80;;;2.50;99.90;;;;;;5072161;28;20040;-71
2023/03/09 09:57:55;;;;;;;26.87;24.00;;;2.50;99.90;;;;;;5071975;28;20082;-71
2023/03/09 10:00:34;;;;;;;24.83;22.23;;;2.50;99.90;;;;;;5075648;28;20143;-71
2023/03/09 10:03:31;;;;;;;26.13;23.43;;;2.60;99.90;;;;;;5071794;28;20424;-71
2023/03/09 10:06:10;;;;;;;26.03;23.30;;;2.70;99.90;;;;;;5048707;28;20355;-71
2023/03/09 10:08:40;;;;;;;26.98;24.17;;;2.60;99.90;;;;;;5089302;27;20036;-71
2023/03/09 10:11:44;;;;;;;27.40;24.60;;;2.70;99.90;;;;;;5075614;28;20274;-71
2023/03/09 10:14:13;;;;;;;26.23;23.58;;;2.70;99.90;;;;;;5033404;28;20079;-71
2023/03/09 10:16:53;;;;;;;25.63;22.83;;;2.80;99.90;;;;;;5070672;28;20051;-71
2023/03/09 10:19:37;;;;;;;25.95;23.35;;;2.80;99.90;;;;;;5068353;28;20399;-73
2023/03/09 10:22:12;;;;;;;27.13;24.33;;;2.80;99.90;;;;;;5073678;28;20083;-71
2023/03/09 10:24:52;;;;;;;24.27;21.77;;;2.90;99.90;;;;;;5070239;28;20376;-71
2023/03/09 10:27:30;;;;;;;24.47;22.07;;;2.90;99.90;;;;;;5075427;28;20061;-71
2023/03/09 10:30:14;;;;;;;22.63;20.33;;;2.90;99.90;;;;;;5072564;28;20040;-71
2023/03/09 10:32:40;;;;;;;23.95;21.55;;;2.90;99.90;;;;;;5072680;28;20075;-72
2023/03/09 10:35:18;;;;;;;24.80;22.30;;;3.00;99.90;;;;;;5072690;28;21440;-72
2023/03/09 10:37:46;;;;;;;24.00;21.50;;;3.00;99.90;;;;;;5069849;28;20380;-72
2023/03/09 10:40:20;;;;;;;24.10;21.65;;;3.00;99.90;;;;;;5056455;28;20063;-74
2023/03/09 10:42:46;;;;;;;23.70;21.35;;;3.10;99.90;;;;;;5071513;28;20162;-74
2023/03/09 10:45:12;;;;;;;23.38;20.95;;;3.10;99.90;;;;;;5054361;28;20127;-73
2023/03/09 10:47:59;;;;;;;24.60;22.00;;;3.10;99.90;;;;;;5074921;28;20051;-73
2023/03/09 10:51:17;;;;;;;22.80;20.50;;;3.10;99.90;;;;;;5055282;28;20415;-73
2023/03/09 10:53:48;;;;;;;22.60;20.40;;;3.10;99.90;;;;;;5047591;28;20054;-72
2023/03/09 10:56:13;;;;;;;23.73;21.27;;;3.20;99.90;;;;;;5067437;28;20399;-72
2023/03/09 10:58:39;;;;;;;21.73;19.58;;;3.10;99.90;;;;;;5058147;28;20055;-72
2023/03/09 11:01:20;;;;;;;23.23;20.05;;;3.10;99.90;;;;;;5057109;28;20036;-72
2023/03/09 11:03:46;;;;;;;22.48;20.27;;;3.10;99.90;;;;;;5052359;28;20102;-72
2023/03/09 11:06:34;;;;;;;23.05;20.75;;;3.10;99.90;;;;;;5072077;28;20098;-72
2023/03/09 11:09:13;;;;;;;23.08;20.67;;;3.20;99.90;;;;;;5071797;28;20428;-72
2023/03/09 11:11:40;;;;;;;24.88;22.27;;;3.20;99.90;;;;;;5087919;28;20101;-72
2023/03/09 11:14:29;;;;;;;22.27;20.00;;;3.30;99.90;;;;;;5071752;28;20052;-72
2023/03/09 11:16:59;;;;;;;22.47;20.23;;;3.30;99.90;;;;;;5053534;28;20046;-74
2023/03/09 11:19:25;;;;;;;22.17;20.03;;;3.40;99.90;;;;;;5055389;28;20299;-72
2023/03/09 11:21:57;;;;;;;22.50;20.20;;;3.40;99.90;;;;;;5054330;28;20040;-72
2023/03/09 11:24:39;;;;;;;21.83;19.63;;;3.40;99.90;;;;;;5072227;28;20486;-72
2023/03/09 11:27:21;;;;;;;23.05;20.75;;;3.40;99.90;;;;;;5055718;28;20044;-72
2023/03/09 11:29:57;;;;;;;23.58;21.10;;;3.40;99.90;;;;;;5056801;28;20240;-72
2023/03/09 11:32:23;;;;;;;23.83;21.42;;;3.40;99.90;;;;;;5060347;28;20063;-73
2023/03/09 11:34:50;;;;;;;23.42;21.02;;;3.40;99.90;;;;;;5073615;28;20126;-73
2023/03/09 11:37:21;;;;;;;22.17;19.98;;;3.40;99.90;;;;;;5075178;28;20501;-73
2023/03/09 11:40:06;;;;;;;22.15;19.85;;;3.40;99.90;;;;;;5074573;28;20102;-73
2023/03/09 11:42:53;;;;;;;22.40;20.00;;;3.40;99.90;;;;;;5076800;28;20378;-73
2023/03/09 11:45:21;;;;;;;23.08;20.77;;;3.40;99.90;;;;;;5090719;28;20084;-73
2023/03/09 11:48:14;;;;;;;22.50;20.25;;;3.50;99.90;;;;;;5076128;28;20735;-72
2023/03/09 11:50:54;;;;;;;23.13;20.75;;;3.50;99.90;;;;;;5077886;28;20483;-72
2023/03/09 11:53:45;;;;;;;22.90;20.58;;;3.50;99.90;;;;;;5056404;28;20044;-72
2023/03/09 11:56:38;;;;;;;23.30;20.98;;;3.50;99.90;;;;;;5076359;28;20689;-72
2023/03/09 11:59:26;;;;;;;21.33;19.20;;;3.50;99.90;;;;;;5068090;28;20135;-72
2023/03/09 12:02:00;;;;;;;21.50;19.40;;;3.60;99.90;;;;;;5073948;28;20124;-72
2023/03/09 12:04:26;;;;;;;23.08;20.73;;;3.60;99.90;;;;;;5059571;28;20040;-72
2023/03/09 12:06:54;;;;;;;22.73;20.35;;;3.60;99.90;;;;;;5059383;28;20089;-72
2023/03/09 12:09:26;;;;;;;20.80;18.70;;;3.60;99.90;;;;;;5076655;28;20101;-72
2023/03/09 12:12:18;;;;;;;22.83;20.38;;;3.60;99.90;;;;;;5069611;28;20044;-72
2023/03/09 12:14:49;;;;;;;21.83;19.63;;;3.60;99.90;;;;;;5056233;28;20131;-71
2023/03/09 12:17:21;;;;;;;21.35;19.15;;;3.60;99.90;;;;;;5059498;28;20094;-72
2023/03/09 12:19:51;;;;;;;21.30;19.13;;;3.70;99.90;;;;;;5075170;28;20316;-72
2023/03/09 12:22:25;;;;;;;20.85;18.77;;;3.70;99.90;;;;;;5073822;28;20069;-72
2023/03/09 12:25:16;;;;;;;22.05;19.75;;;3.60;99.90;;;;;;5056239;28;20157;-72
2023/03/09 12:27:52;;;;;;;22.85;20.42;;;3.60;99.90;;;;;;5074164;28;20137;-72
2023/03/09 12:30:30;;;;;;;20.92;18.83;;;3.70;99.90;;;;;;5070645;28;20388;-74
2023/03/09 12:32:59;;;;;;;21.52;19.33;;;3.70;99.90;;;;;;5072523;28;20044;-74
2023/03/09 12:35:40;;;;;;;21.88;19.67;;;3.70;99.90;;;;;;5077861;28;20133;-74
2023/03/09 12:38:16;;;;;;;21.75;19.50;;;3.70;99.90;;;;;;5056729;28;20040;-71
2023/03/09 12:40:42;;;;;;;22.27;19.90;;;3.70;99.90;;;;;;5058426;28;20062;-70
2023/03/09 12:43:14;;;;;;;22.17;19.98;;;3.70;99.90;;;;;;5075155;28;20055;-71
2023/03/09 12:45:42;;;;;;;21.25;19.13;;;3.70;99.90;;;;;;5075402;28;20055;-71
2023/03/09 12:48:24;;;;;;;23.65;21.25;;;3.60;99.90;;;;;;5058845;28;20387;-70